Terminal Aerodrome Forecast
Issued by NWS

Home | Current Version | Previous Version | Text Only | Print | Product List | Glossary On
Versions: 1 2 3 4 5 6 7 8 9 10 11 12 13
595
FTUS43 KGRR 131720
TAFBTL
TAF
KBTL 131720Z 1318/1418 32013G21KT P6SM -SN BKN035
     FM132200 31008KT P6SM SCT040
     FM140100 21003KT P6SM SKC
     FM141500 15009KT P6SM BKN150=

USA.gov is the U.S. government's official web portal to all federal, state and local government web resources and services.